Time;durP1;ratioP1;P1;durP2;ratioP2;P2;SDS_P1;SDS_P2;PMS_P1;PMS_P2;Temp;Humidity;BMP_temperature;BMP_pressure;BME280_temperature;BME280_humidity;BME280_pressure;Samples;Min_cycle;Max_cycle;Signal;HPM_P1;HPM_P2
2023/05/08 00:00:19;;;;;;;10.63;9.75;;;16.40;99.90;;;;;;5011946;28;20036;-84
2023/05/08 00:02:45;;;;;;;9.77;9.02;;;16.40;99.90;;;;;;5012112;28;20113;-84
2023/05/08 00:05:11;;;;;;;10.40;9.52;;;16.40;99.90;;;;;;5012302;28;20026;-84
2023/05/08 00:07:37;;;;;;;11.15;10.45;;;16.40;99.90;;;;;;5011593;28;20397;-83
2023/05/08 00:10:08;;;;;;;11.02;10.00;;;16.40;99.90;;;;;;5012622;28;20025;-83
2023/05/08 00:12:34;;;;;;;11.30;10.50;;;16.40;99.90;;;;;;5012307;28;20026;-83
2023/05/08 00:14:59;;;;;;;11.65;10.75;;;16.30;99.90;;;;;;5011910;28;20508;-84
2023/05/08 00:17:25;;;;;;;12.93;11.57;;;16.30;99.90;;;;;;5012325;28;20026;-84
2023/05/08 00:19:51;;;;;;;12.68;11.77;;;16.40;99.90;;;;;;5011827;28;20471;-84
2023/05/08 00:22:17;;;;;;;18.58;12.35;;;16.40;99.90;;;;;;5011588;28;20441;-84
2023/05/08 00:24:43;;;;;;;12.82;11.90;;;16.40;99.90;;;;;;5012053;28;20034;-84
2023/05/08 00:27:09;;;;;;;13.43;12.52;;;16.40;99.90;;;;;;5012429;28;20018;-83
2023/05/08 00:29:34;;;;;;;12.57;11.68;;;16.40;99.90;;;;;;5011177;28;20057;-84
2023/05/08 00:32:00;;;;;;;11.82;11.02;;;16.50;99.90;;;;;;5012393;28;20037;-84
2023/05/08 00:34:25;;;;;;;11.38;10.57;;;16.40;99.90;;;;;;5011363;28;20113;-84
2023/05/08 00:36:51;;;;;;;10.45;9.75;;;16.30;99.90;;;;;;5012129;28;20026;-84
2023/05/08 00:39:17;;;;;;;11.52;10.73;;;16.30;99.90;;;;;;5012324;28;20037;-84
2023/05/08 00:41:43;;;;;;;10.82;10.13;;;16.30;99.90;;;;;;5011302;28;20080;-83
2023/05/08 00:44:08;;;;;;;10.43;9.73;;;16.30;99.90;;;;;;5012373;28;20535;-83
2023/05/08 00:46:35;;;;;;;10.60;9.80;;;16.30;99.90;;;;;;5014662;28;20060;-84
2023/05/08 00:49:03;;;;;;;11.02;10.32;;;16.30;99.90;;;;;;5014836;28;20030;-84
2023/05/08 00:51:30;;;;;;;11.50;10.63;;;16.30;99.90;;;;;;5015666;28;20493;-83
2023/05/08 00:53:56;;;;;;;11.45;10.65;;;16.20;99.90;;;;;;5015820;28;20050;-84
2023/05/08 00:56:22;;;;;;;11.32;10.52;;;16.20;99.90;;;;;;5015123;28;20492;-84
2023/05/08 00:58:49;;;;;;;10.30;9.40;;;16.20;99.90;;;;;;5015140;28;20516;-84
2023/05/08 01:01:15;;;;;;;10.70;9.90;;;16.20;99.90;;;;;;5015689;28;20159;-83
2023/05/08 01:03:43;;;;;;;11.07;10.38;;;16.20;99.90;;;;;;5014272;28;20025;-84
2023/05/08 01:06:09;;;;;;;10.98;10.27;;;16.20;99.90;;;;;;5015607;28;20101;-84
2023/05/08 01:08:34;;;;;;;11.15;10.45;;;16.20;99.90;;;;;;5015270;28;20442;-84
2023/05/08 01:11:04;;;;;;;11.15;10.35;;;16.20;99.90;;;;;;5014864;28;20406;-84
2023/05/08 01:13:50;;;;;;;11.50;10.65;;;16.10;99.90;;;;;;5015067;28;20022;-84
2023/05/08 01:16:32;;;;;;;10.65;9.75;;;16.20;99.90;;;;;;5015661;28;20049;-84
2023/05/08 01:19:06;;;;;;;9.93;9.10;;;16.10;99.90;;;;;;5015374;28;20036;-83
2023/05/08 01:21:44;;;;;;;9.48;8.80;;;16.10;99.90;;;;;;5015015;28;20473;-84
2023/05/08 01:24:36;;;;;;;11.35;9.05;;;16.10;99.90;;;;;;5014557;28;20026;-84
2023/05/08 01:27:24;;;;;;;8.23;7.72;;;16.10;99.90;;;;;;5014922;28;20504;-84
2023/05/08 01:30:21;;;;;;;8.55;8.00;;;16.00;99.90;;;;;;5014741;28;20145;-84
2023/05/08 01:33:10;;;;;;;9.55;8.70;;;16.00;99.90;;;;;;5013837;28;20530;-84
2023/05/08 01:35:46;;;;;;;10.13;9.35;;;15.90;99.90;;;;;;5000579;28;20030;-84
2023/05/08 01:38:17;;;;;;;12.65;11.40;;;15.70;99.90;;;;;;5014304;28;20099;-83
2023/05/08 01:41:05;;;;;;;11.45;10.65;;;15.70;99.90;;;;;;5014502;28;20033;-84
2023/05/08 01:43:52;;;;;;;12.45;11.50;;;15.50;99.90;;;;;;5014616;28;20046;-83
2023/05/08 01:46:22;;;;;;;14.30;13.30;;;15.60;99.90;;;;;;5013788;28;20473;-83
2023/05/08 01:49:01;;;;;;;12.68;11.77;;;15.60;99.90;;;;;;5014541;28;20061;-84
2023/05/08 01:51:35;;;;;;;13.65;12.75;;;15.70;99.90;;;;;;5014440;28;20537;-84
2023/05/08 01:54:06;;;;;;;14.32;13.30;;;15.80;99.90;;;;;;5014109;28;20109;-84
2023/05/08 01:56:34;;;;;;;15.30;14.10;;;15.80;99.90;;;;;;5013519;28;20069;-84
2023/05/08 01:59:01;;;;;;;16.38;15.13;;;15.80;99.90;;;;;;5013541;28;20080;-84
2023/05/08 02:01:28;;;;;;;15.80;14.40;;;15.80;99.90;;;;;;5014688;28;20025;-84
2023/05/08 02:03:56;;;;;;;17.45;16.05;;;15.80;99.90;;;;;;5014157;28;20022;-84
2023/05/08 02:06:22;;;;;;;16.60;15.20;;;15.80;99.90;;;;;;5013786;28;20029;-84
2023/05/08 02:08:50;;;;;;;15.18;14.07;;;15.90;99.90;;;;;;5013827;28;20389;-83
2023/05/08 02:11:17;;;;;;;17.45;16.05;;;16.00;99.90;;;;;;5014072;28;20033;-84
2023/05/08 02:13:46;;;;;;;18.02;16.40;;;16.00;99.90;;;;;;5013123;28;20026;-84
2023/05/08 02:16:12;;;;;;;17.65;16.20;;;16.00;99.90;;;;;;5014339;28;20030;-84
2023/05/08 02:18:42;;;;;;;19.23;17.60;;;16.10;99.90;;;;;;5013968;28;20033;-84
2023/05/08 02:21:08;;;;;;;21.30;19.27;;;16.10;99.90;;;;;;5013180;28;20045;-84
2023/05/08 02:23:34;;;;;;;24.42;21.92;;;16.10;99.90;;;;;;5013755;28;20026;-84
2023/05/08 02:26:02;;;;;;;27.30;23.48;;;16.10;99.90;;;;;;5014121;28;20029;-84
2023/05/08 02:28:29;;;;;;;26.85;24.08;;;16.10;99.90;;;;;;5013578;28;20030;-83
2023/05/08 02:30:56;;;;;;;35.85;27.75;;;16.10;99.90;;;;;;5013702;28;20099;-84
2023/05/08 02:33:23;;;;;;;46.17;34.53;;;16.20;99.90;;;;;;5014024;28;20018;-84
2023/05/08 02:35:50;;;;;;;54.03;37.35;;;16.10;99.90;;;;;;5012963;28;20030;-84
2023/05/08 02:38:19;;;;;;;61.13;38.45;;;16.10;99.90;;;;;;5013586;28;20462;-83
2023/05/08 02:40:48;;;;;;;61.60;39.83;;;16.20;99.90;;;;;;5013435;28;20081;-84
2023/05/08 02:43:14;;;;;;;60.95;38.40;;;16.20;99.90;;;;;;5012732;28;20504;-83
2023/05/08 02:46:02;;;;;;;63.63;40.53;;;16.20;99.90;;;;;;5013498;28;20055;-83
2023/05/08 02:48:35;;;;;;;57.97;39.13;;;16.30;99.90;;;;;;5013027;28;20040;-84
2023/05/08 02:51:19;;;;;;;59.88;40.17;;;16.20;99.90;;;;;;5013435;28;20485;-84
2023/05/08 02:54:03;;;;;;;64.85;38.65;;;16.20;99.90;;;;;;5013170;28;20084;-84
2023/05/08 02:56:35;;;;;;;59.60;38.80;;;16.20;99.90;;;;;;5012804;28;20029;-84
2023/05/08 02:59:15;;;;;;;55.75;38.47;;;16.20;99.90;;;;;;5013458;28;20025;-84
2023/05/08 03:02:04;;;;;;;54.70;38.10;;;16.20;99.90;;;;;;5013284;28;20132;-84
2023/05/08 03:04:35;;;;;;;56.38;39.85;;;16.10;99.90;;;;;;5013536;28;20156;-84
2023/05/08 03:07:03;;;;;;;48.50;38.00;;;16.10;99.90;;;;;;5013177;28;20513;-84
2023/05/08 03:09:41;;;;;;;54.83;37.70;;;16.10;99.90;;;;;;5012558;28;20036;-84
2023/05/08 03:12:13;;;;;;;50.65;35.90;;;16.20;99.90;;;;;;5013405;28;20040;-84
2023/05/08 03:14:53;;;;;;;54.97;39.20;;;16.10;99.90;;;;;;5012810;28;20018;-84
2023/05/08 03:17:21;;;;;;;55.78;39.70;;;16.20;99.90;;;;;;5012303;28;20121;-84
2023/05/08 03:19:51;;;;;;;53.42;36.80;;;16.20;99.90;;;;;;5012675;28;20042;-84
2023/05/08 03:22:19;;;;;;;62.67;40.53;;;16.20;99.90;;;;;;5012920;28;20474;-84
2023/05/08 03:24:46;;;;;;;58.85;39.05;;;16.20;99.90;;;;;;5012356;28;20172;-84
2023/05/08 03:27:12;;;;;;;62.65;42.25;;;16.20;99.90;;;;;;5012935;28;20468;-84
2023/05/08 03:29:38;;;;;;;57.67;39.88;;;16.20;99.90;;;;;;5012430;28;20466;-84
2023/05/08 03:32:05;;;;;;;54.92;38.63;;;16.20;99.90;;;;;;5012014;28;20489;-84
2023/05/08 03:34:31;;;;;;;58.03;40.00;;;16.20;99.90;;;;;;5012918;28;20030;-84
2023/05/08 03:36:57;;;;;;;66.35;42.72;;;16.20;99.90;;;;;;5012843;28;20029;-83
2023/05/08 03:39:25;;;;;;;65.25;41.58;;;16.20;99.90;;;;;;5012108;28;20492;-84
2023/05/08 03:41:51;;;;;;;59.35;40.10;;;16.20;99.90;;;;;;5012072;28;20408;-84
2023/05/08 03:44:17;;;;;;;58.50;38.83;;;16.10;99.90;;;;;;5011980;28;20026;-83
2023/05/08 03:46:46;;;;;;;56.80;37.67;;;16.10;99.90;;;;;;5012482;28;20059;-84
2023/05/08 03:49:13;;;;;;;54.78;37.88;;;16.10;99.90;;;;;;5012831;28;20072;-84
2023/05/08 03:51:39;;;;;;;54.78;38.90;;;16.10;99.90;;;;;;5011631;28;20036;-84
2023/05/08 03:54:04;;;;;;;54.92;36.92;;;16.10;99.90;;;;;;5012476;28;20113;-83
2023/05/08 03:56:30;;;;;;;66.22;43.30;;;16.10;99.90;;;;;;5012386;28;20106;-84
2023/05/08 03:59:04;;;;;;;69.82;46.03;;;16.10;99.90;;;;;;5011583;28;20108;-84
2023/05/08 04:01:53;;;;;;;72.28;44.42;;;16.10;99.90;;;;;;5012872;28;20096;-84
2023/05/08 04:04:34;;;;;;;79.00;50.03;;;16.10;99.90;;;;;;5012714;28;20022;-84
2023/05/08 04:07:11;;;;;;;91.00;56.67;;;16.10;99.90;;;;;;5011608;28;20095;-84
2023/05/08 04:09:58;;;;;;;97.90;61.20;;;16.10;99.90;;;;;;5012375;28;20101;-84
2023/05/08 04:12:52;;;;;;;99.00;64.25;;;16.10;99.90;;;;;;5011659;28;20389;-84
2023/05/08 04:15:22;;;;;;;103.85;65.07;;;16.00;99.90;;;;;;4983445;28;20117;-83
2023/05/08 04:18:05;;;;;;;102.63;63.85;;;16.00;99.90;;;;;;5012201;28;20033;-83
2023/05/08 04:20:32;;;;;;;106.05;65.53;;;15.90;99.90;;;;;;5012933;28;20474;-84
2023/05/08 04:22:58;;;;;;;105.35;67.93;;;15.90;99.90;;;;;;5016260;28;20108;-83
2023/05/08 04:25:25;;;;;;;108.10;65.50;;;15.90;99.90;;;;;;5016369;28;20029;-83
2023/05/08 04:27:51;;;;;;;119.32;67.15;;;15.90;99.90;;;;;;5014990;28;20037;-84
2023/05/08 04:30:18;;;;;;;115.72;68.82;;;15.90;99.90;;;;;;5016182;28;20068;-83
2023/05/08 04:32:43;;;;;;;107.60;65.75;;;15.90;99.90;;;;;;5015818;28;20044;-84
2023/05/08 04:35:11;;;;;;;111.10;66.03;;;15.90;99.90;;;;;;5015467;28;20026;-83
2023/05/08 04:37:37;;;;;;;97.72;63.80;;;15.80;99.90;;;;;;5015819;28;20037;-84
2023/05/08 04:40:04;;;;;;;96.75;63.88;;;15.80;99.90;;;;;;5015671;28;20042;-83
2023/05/08 04:42:29;;;;;;;104.30;65.80;;;15.80;99.90;;;;;;5015127;28;20053;-83
2023/05/08 04:44:55;;;;;;;100.40;64.70;;;15.90;99.90;;;;;;5015595;28;20025;-83
2023/05/08 04:47:20;;;;;;;101.15;64.93;;;15.90;99.90;;;;;;5016200;28;20018;-83
2023/05/08 04:49:46;;;;;;;96.18;61.78;;;15.90;99.90;;;;;;5015285;28;20038;-84
2023/05/08 04:52:12;;;;;;;92.97;60.25;;;15.80;99.90;;;;;;5015526;28;20022;-83
2023/05/08 04:54:37;;;;;;;122.88;58.03;;;15.90;99.90;;;;;;5014862;28;20081;-84
2023/05/08 04:57:03;;;;;;;113.47;55.85;;;15.80;99.90;;;;;;5015723;28;20065;-83
2023/05/08 04:59:29;;;;;;;93.82;55.58;;;15.50;99.90;;;;;;5015579;28;20125;-83
2023/05/08 05:01:55;;;;;;;74.50;52.60;;;15.60;99.90;;;;;;5014833;28;20417;-84
2023/05/08 05:04:21;;;;;;;77.78;53.95;;;15.70;99.90;;;;;;5015687;28;20032;-83
2023/05/08 05:06:47;;;;;;;83.32;54.80;;;15.70;99.90;;;;;;5015123;28;20022;-84
2023/05/08 05:09:12;;;;;;;86.72;52.65;;;15.80;99.90;;;;;;5014931;28;20022;-84
2023/05/08 05:11:38;;;;;;;68.63;49.63;;;15.70;99.90;;;;;;5014904;28;20180;-83
2023/05/08 05:14:03;;;;;;;69.10;48.25;;;15.70;99.90;;;;;;5015537;28;20049;-84
2023/05/08 05:16:29;;;;;;;86.45;49.33;;;15.70;99.90;;;;;;5014675;28;20056;-84
2023/05/08 05:18:54;;;;;;;78.07;52.20;;;15.80;99.90;;;;;;5014938;28;20036;-83
2023/05/08 05:21:20;;;;;;;69.20;49.05;;;15.70;99.90;;;;;;5015139;28;20034;-84
2023/05/08 05:23:45;;;;;;;67.82;49.45;;;16.60;99.90;;;;;;5013918;28;20072;-84
2023/05/08 05:26:11;;;;;;;64.70;47.35;;;15.80;99.90;;;;;;5014834;28;20041;-83
2023/05/08 05:28:37;;;;;;;72.30;50.15;;;15.80;99.90;;;;;;5014953;28;20014;-84
2023/05/08 05:31:02;;;;;;;71.03;51.63;;;15.80;99.90;;;;;;5013731;28;20033;-83
2023/05/08 05:33:28;;;;;;;79.80;54.25;;;15.80;99.90;;;;;;5014302;28;20113;-83
2023/05/08 05:35:53;;;;;;;78.68;53.63;;;15.70;99.90;;;;;;5014253;28;20456;-84
2023/05/08 05:38:19;;;;;;;69.30;50.70;;;15.70;99.90;;;;;;5013960;28;20072;-83
2023/05/08 05:40:45;;;;;;;72.65;51.45;;;15.70;99.90;;;;;;5014206;28;20042;-84
2023/05/08 05:43:10;;;;;;;73.75;51.85;;;15.80;99.90;;;;;;5014369;28;20046;-84
2023/05/08 05:45:36;;;;;;;72.82;52.20;;;15.80;99.90;;;;;;5013486;28;20034;-84
2023/05/08 05:48:01;;;;;;;72.50;52.75;;;15.80;99.90;;;;;;5014630;28;20105;-84
2023/05/08 05:50:27;;;;;;;73.68;50.10;;;15.80;99.90;;;;;;5014381;28;20390;-84
2023/05/08 05:52:53;;;;;;;77.85;54.20;;;15.70;99.90;;;;;;5013401;28;20026;-83
2023/05/08 05:55:19;;;;;;;76.25;53.70;;;15.70;99.90;;;;;;5014452;28;20109;-84
2023/05/08 05:57:45;;;;;;;84.47;55.22;;;15.70;99.90;;;;;;5014313;28;20130;-84
2023/05/08 06:00:11;;;;;;;76.97;54.20;;;15.70;99.90;;;;;;5013649;28;20474;-84
2023/05/08 06:02:37;;;;;;;75.30;53.17;;;15.70;99.90;;;;;;5014159;28;20022;-84
2023/05/08 06:05:03;;;;;;;77.15;53.30;;;15.70;99.90;;;;;;5013598;28;20034;-84
2023/05/08 06:07:29;;;;;;;68.57;50.20;;;15.70;99.90;;;;;;5014252;28;20022;-84
2023/05/08 06:09:55;;;;;;;70.55;50.58;;;15.70;99.90;;;;;;5013541;28;20038;-85
2023/05/08 06:12:21;;;;;;;81.85;54.65;;;15.60;99.90;;;;;;5013766;28;20033;-84
2023/05/08 06:14:46;;;;;;;74.25;53.17;;;15.60;99.90;;;;;;5013835;28;20490;-84
2023/05/08 06:17:12;;;;;;;93.75;58.05;;;15.60;99.90;;;;;;5013864;28;20032;-84
2023/05/08 06:19:37;;;;;;;90.70;57.53;;;15.60;99.90;;;;;;5012780;28;20474;-84
2023/05/08 06:22:03;;;;;;;81.95;57.72;;;15.60;99.90;;;;;;5013758;28;20025;-84
2023/05/08 06:24:28;;;;;;;112.45;58.30;;;15.50;99.90;;;;;;5013819;28;20022;-83
2023/05/08 06:26:54;;;;;;;109.18;59.67;;;15.50;99.90;;;;;;5013054;28;20022;-84
2023/05/08 06:29:19;;;;;;;87.97;59.20;;;15.40;99.90;;;;;;5014017;28;20022;-83
2023/05/08 06:31:45;;;;;;;99.60;63.75;;;15.50;99.90;;;;;;5013389;28;20026;-83
2023/05/08 06:34:11;;;;;;;108.30;64.47;;;15.20;99.90;;;;;;5013230;28;20025;-84
2023/05/08 06:36:36;;;;;;;87.07;60.10;;;15.20;99.90;;;;;;5013445;28;20437;-84
2023/05/08 06:39:05;;;;;;;94.65;60.35;;;15.20;99.90;;;;;;5013808;28;20037;-84
2023/05/08 06:41:31;;;;;;;86.45;57.67;;;15.30;99.90;;;;;;5012896;28;20038;-84
2023/05/08 06:43:56;;;;;;;93.30;60.13;;;15.20;99.90;;;;;;5012881;28;20045;-84
2023/05/08 06:46:22;;;;;;;131.20;59.92;;;15.20;99.90;;;;;;5013706;28;20034;-83
2023/05/08 06:48:48;;;;;;;89.32;56.50;;;15.30;99.90;;;;;;5012723;28;20553;-83
2023/05/08 06:51:13;;;;;;;68.65;52.78;;;15.20;99.90;;;;;;5013829;28;20037;-84
2023/05/08 06:53:39;;;;;;;72.28;53.88;;;15.30;99.90;;;;;;5012973;28;20053;-84
2023/05/08 06:56:05;;;;;;;81.47;56.10;;;15.20;99.90;;;;;;5012847;28;20022;-83
2023/05/08 06:58:31;;;;;;;78.55;57.42;;;15.30;99.90;;;;;;5013154;28;20482;-84
2023/05/08 07:00:59;;;;;;;79.85;57.72;;;15.20;99.90;;;;;;5013186;28;20053;-84
2023/05/08 07:03:25;;;;;;;80.38;59.45;;;15.20;99.90;;;;;;5012399;28;20509;-84
2023/05/08 07:05:50;;;;;;;84.72;58.70;;;15.20;99.90;;;;;;5013089;28;20029;-83
2023/05/08 07:08:16;;;;;;;85.25;62.05;;;15.30;99.90;;;;;;5012262;28;20021;-84
2023/05/08 07:10:41;;;;;;;80.13;58.10;;;15.30;99.90;;;;;;5012623;28;20117;-84
2023/05/08 07:13:07;;;;;;;73.60;55.78;;;15.30;99.90;;;;;;5013088;28;20161;-83
2023/05/08 07:15:33;;;;;;;73.53;56.63;;;15.30;99.90;;;;;;5012025;28;20072;-83
2023/05/08 07:17:59;;;;;;;83.88;59.95;;;15.30;99.90;;;;;;5013221;28;20029;-84
2023/05/08 07:20:24;;;;;;;81.20;60.00;;;15.30;99.90;;;;;;5013225;28;20070;-83
2023/05/08 07:22:50;;;;;;;78.88;56.55;;;15.30;99.90;;;;;;5011701;28;20026;-84
2023/05/08 07:25:15;;;;;;;82.25;59.83;;;15.40;99.90;;;;;;5012717;28;20425;-83
2023/05/08 07:27:41;;;;;;;88.32;62.10;;;15.40;99.90;;;;;;5012554;28;20057;-84
2023/05/08 07:30:07;;;;;;;88.32;64.15;;;15.40;99.90;;;;;;5012345;28;20072;-84
2023/05/08 07:32:33;;;;;;;92.82;63.88;;;15.40;99.90;;;;;;5012673;28;20021;-84
2023/05/08 07:34:59;;;;;;;88.13;61.40;;;15.50;99.90;;;;;;5013160;28;20088;-84
2023/05/08 07:37:24;;;;;;;96.28;63.15;;;15.50;99.90;;;;;;5011931;28;20424;-84
2023/05/08 07:39:50;;;;;;;93.93;63.85;;;15.50;99.90;;;;;;5012297;28;20076;-84
2023/05/08 07:42:17;;;;;;;85.90;61.42;;;15.60;99.90;;;;;;5012287;28;20050;-83
2023/05/08 07:44:42;;;;;;;88.53;62.63;;;15.60;99.90;;;;;;5011651;28;20076;-84
2023/05/08 07:47:08;;;;;;;90.22;63.63;;;15.60;99.90;;;;;;5012835;28;20021;-84
2023/05/08 07:49:33;;;;;;;91.68;63.53;;;15.60;99.90;;;;;;5012397;28;20444;-84
2023/05/08 07:51:59;;;;;;;94.88;66.72;;;15.70;99.90;;;;;;5011532;28;20022;-84
2023/05/08 07:54:25;;;;;;;98.35;65.25;;;15.70;99.90;;;;;;5012135;28;20033;-84
2023/05/08 07:56:50;;;;;;;92.00;62.90;;;15.70;99.90;;;;;;5012017;28;20030;-84
2023/05/08 07:59:17;;;;;;;97.05;65.65;;;15.70;99.90;;;;;;5011649;28;20030;-84
2023/05/08 08:01:46;;;;;;;97.88;65.78;;;15.80;99.90;;;;;;5012348;28;20104;-83
2023/05/08 08:04:13;;;;;;;100.90;63.53;;;15.80;99.90;;;;;;5012449;28;20057;-83
2023/05/08 08:06:39;;;;;;;95.68;67.43;;;15.80;99.90;;;;;;5011062;28;20032;-84
2023/05/08 08:09:04;;;;;;;101.47;66.82;;;15.70;99.90;;;;;;5011952;28;20116;-85
2023/05/08 08:11:30;;;;;;;97.32;66.30;;;15.80;99.90;;;;;;5011720;28;20076;-85
2023/05/08 08:13:56;;;;;;;94.13;64.57;;;15.80;99.90;;;;;;5012215;28;20068;-84
2023/05/08 08:16:21;;;;;;;112.30;73.93;;;15.90;99.90;;;;;;5012402;28;20025;-84
2023/05/08 08:18:47;;;;;;;115.18;73.30;;;15.90;99.90;;;;;;5011152;28;20030;-85
2023/05/08 08:21:12;;;;;;;112.10;72.05;;;16.00;99.90;;;;;;5011912;28;20034;-84
2023/05/08 08:23:38;;;;;;;115.05;72.38;;;16.00;99.90;;;;;;5011719;28;20026;-83
2023/05/08 08:26:03;;;;;;;116.00;71.05;;;16.00;99.90;;;;;;5011626;28;20033;-83
2023/05/08 08:28:29;;;;;;;113.20;71.75;;;16.00;99.90;;;;;;5012397;28;20022;-84
2023/05/08 08:30:55;;;;;;;117.85;73.20;;;16.00;99.90;;;;;;5011973;28;20029;-84
2023/05/08 08:33:20;;;;;;;119.38;69.82;;;16.00;99.90;;;;;;5011979;28;20064;-84
2023/05/08 08:35:46;;;;;;;119.00;68.95;;;16.00;99.90;;;;;;5011691;28;20415;-84
2023/05/08 08:38:12;;;;;;;117.30;65.90;;;16.00;99.90;;;;;;5012369;28;20450;-84
2023/05/08 08:40:39;;;;;;;111.40;65.78;;;16.10;99.90;;;;;;5010896;28;20501;-84
2023/05/08 08:43:05;;;;;;;108.53;63.58;;;16.10;99.90;;;;;;5011924;28;20219;-84
2023/05/08 08:45:30;;;;;;;115.05;65.13;;;16.10;99.90;;;;;;5012284;28;20492;-84
2023/05/08 08:48:00;;;;;;;108.53;63.42;;;16.10;99.90;;;;;;5010980;28;20030;-84
2023/05/08 08:50:31;;;;;;;119.13;67.43;;;16.10;99.90;;;;;;5011982;28;20029;-84
2023/05/08 08:53:08;;;;;;;123.07;68.68;;;16.20;99.90;;;;;;5011948;28;20041;-84
2023/05/08 08:55:38;;;;;;;117.50;67.88;;;16.20;99.90;;;;;;5011848;28;20037;-86
2023/05/08 08:58:12;;;;;;;120.15;68.75;;;16.20;99.90;;;;;;5012378;28;20057;-84
2023/05/08 09:00:39;;;;;;;119.82;67.10;;;16.30;99.90;;;;;;5011793;28;20046;-84
2023/05/08 09:03:06;;;;;;;124.00;71.85;;;16.30;99.90;;;;;;5011593;28;20049;-84
2023/05/08 09:05:32;;;;;;;130.10;72.30;;;16.40;99.90;;;;;;5011444;28;20520;-84
2023/05/08 09:07:59;;;;;;;129.77;74.43;;;16.40;99.90;;;;;;5014926;28;20037;-84
2023/05/08 09:10:24;;;;;;;121.85;70.78;;;16.40;99.90;;;;;;5015401;28;20022;-85
2023/05/08 09:12:50;;;;;;;124.70;73.47;;;16.40;99.90;;;;;;5014878;28;20474;-84
2023/05/08 09:15:16;;;;;;;118.97;71.57;;;16.40;99.90;;;;;;5014380;28;20030;-85
2023/05/08 09:17:41;;;;;;;130.93;71.00;;;16.50;99.90;;;;;;5015085;28;20418;-84
2023/05/08 09:20:08;;;;;;;116.82;68.30;;;16.70;99.90;;;;;;5015056;28;20485;-84
2023/05/08 09:22:37;;;;;;;115.00;70.43;;;16.50;99.90;;;;;;5014043;28;20520;-84
2023/05/08 09:25:03;;;;;;;115.07;68.63;;;16.60;99.90;;;;;;5015304;28;20029;-84
2023/05/08 09:27:31;;;;;;;120.88;67.53;;;16.60;99.90;;;;;;5015328;28;20461;-85
2023/05/08 09:30:10;;;;;;;104.15;63.60;;;16.60;99.90;;;;;;5014062;28;20033;-84
2023/05/08 09:32:38;;;;;;;109.00;61.70;;;16.60;99.90;;;;;;5014617;28;20021;-84
2023/05/08 09:35:05;;;;;;;104.03;60.10;;;16.70;99.90;;;;;;5015038;28;20026;-84
2023/05/08 09:37:32;;;;;;;105.55;59.13;;;16.70;99.90;;;;;;5014118;28;20030;-84
2023/05/08 09:40:19;;;;;;;107.32;60.00;;;16.80;99.90;;;;;;5014732;28;20045;-84
2023/05/08 09:42:46;;;;;;;100.78;59.53;;;16.70;99.90;;;;;;5014204;28;20054;-84
2023/05/08 09:45:28;;;;;;;108.28;59.03;;;16.80;99.90;;;;;;5013960;28;20030;-85
2023/05/08 09:47:53;;;;;;;95.75;53.55;;;16.80;99.90;;;;;;5014582;28;20425;-84
2023/05/08 09:50:19;;;;;;;95.05;53.97;;;16.80;99.90;;;;;;5013656;28;20030;-84
2023/05/08 09:52:46;;;;;;;93.45;50.78;;;16.80;99.90;;;;;;5014089;28;20033;-84
2023/05/08 09:55:12;;;;;;;97.85;54.63;;;16.90;99.90;;;;;;5014545;28;20034;-84
2023/05/08 09:57:50;;;;;;;90.63;50.45;;;16.90;99.90;;;;;;5013562;28;20018;-85
2023/05/08 10:00:15;;;;;;;85.85;49.53;;;16.90;99.90;;;;;;5014076;28;20033;-85
2023/05/08 10:02:53;;;;;;;83.93;47.50;;;16.80;99.90;;;;;;5013905;28;20037;-84
2023/05/08 10:05:28;;;;;;;84.82;46.72;;;16.90;99.90;;;;;;5013323;28;20030;-84
2023/05/08 10:07:54;;;;;;;87.70;46.53;;;17.00;99.90;;;;;;5014515;28;20037;-85
2023/05/08 10:10:25;;;;;;;75.20;43.58;;;17.00;99.90;;;;;;5014349;28;20026;-84
2023/05/08 10:12:52;;;;;;;71.10;40.45;;;17.10;99.90;;;;;;5013156;28;20504;-84
2023/05/08 10:15:22;;;;;;;71.43;41.15;;;17.10;99.90;;;;;;5013943;28;20513;-84
2023/05/08 10:17:58;;;;;;;70.60;42.63;;;17.10;99.90;;;;;;5012900;28;20044;-84
2023/05/08 10:20:29;;;;;;;76.65;45.50;;;17.10;99.90;;;;;;5013421;28;20072;-85
2023/05/08 10:22:56;;;;;;;73.05;42.92;;;17.10;99.90;;;;;;5013556;28;20026;-85
2023/05/08 10:25:22;;;;;;;71.05;42.38;;;17.10;99.90;;;;;;5013064;28;20394;-84
2023/05/08 10:28:27;;;;;;;80.07;43.00;;;17.20;99.90;;;;;;5013937;28;20021;-84
2023/05/08 10:30:57;;;;;;;77.85;42.60;;;17.10;99.90;;;;;;5013692;28;20359;-85
2023/05/08 10:33:28;;;;;;;77.78;41.72;;;17.10;99.90;;;;;;5013199;28;20084;-84
2023/05/08 10:35:54;;;;;;;75.90;40.50;;;17.10;99.90;;;;;;5013291;28;20030;-84
2023/05/08 10:38:21;;;;;;;79.15;43.00;;;17.10;99.90;;;;;;5013557;28;20053;-85
2023/05/08 10:40:49;;;;;;;73.47;41.58;;;17.10;99.90;;;;;;5012427;28;20045;-85
2023/05/08 10:43:16;;;;;;;83.85;42.78;;;17.10;99.90;;;;;;5013454;28;20057;-84
2023/05/08 10:45:42;;;;;;;75.50;43.58;;;17.10;99.90;;;;;;5013455;28;20033;-85
2023/05/08 10:48:12;;;;;;;81.28;44.20;;;17.60;99.90;;;;;;5012712;28;20488;-84
2023/05/08 10:50:47;;;;;;;80.32;43.13;;;17.10;99.90;;;;;;5013443;28;20065;-84
2023/05/08 10:53:27;;;;;;;82.20;44.50;;;17.10;99.90;;;;;;5012976;28;20385;-84
2023/05/08 10:55:54;;;;;;;78.03;44.75;;;17.10;99.90;;;;;;5013233;28;20433;-85
2023/05/08 10:58:23;;;;;;;79.90;43.33;;;17.10;99.90;;;;;;5013583;28;20025;-84
2023/05/08 11:00:51;;;;;;;72.53;42.50;;;17.10;99.90;;;;;;5011945;28;20096;-84
2023/05/08 11:03:21;;;;;;;71.28;42.55;;;17.10;99.90;;;;;;5013092;28;20018;-84
2023/05/08 11:05:48;;;;;;;;;;;17.10;99.90;;;;;;5013251;28;20363;-84
2023/05/08 11:08:16;;;;;;;78.18;42.40;;;17.10;99.90;;;;;;5012301;28;20001;-85
2023/05/08 11:10:44;;;;;;;77.70;45.25;;;17.10;99.90;;;;;;5012683;28;20041;-84
2023/05/08 11:13:11;;;;;;;77.25;42.67;;;17.10;99.90;;;;;;5013223;28;20030;-84
2023/05/08 11:15:41;;;;;;;74.00;42.85;;;17.20;99.90;;;;;;5012194;28;20026;-85
2023/05/08 11:18:10;;;;;;;68.57;41.37;;;17.20;99.90;;;;;;5012926;28;20542;-84
2023/05/08 11:20:40;;;;;;;56.33;37.50;;;17.10;99.90;;;;;;5012481;28;20049;-84
2023/05/08 11:23:21;;;;;;;60.47;37.17;;;17.20;99.90;;;;;;5012319;28;20497;-85
2023/05/08 11:25:47;;;;;;;58.20;36.67;;;17.30;99.90;;;;;;5012580;28;20373;-85
2023/05/08 11:28:15;;;;;;;60.28;36.63;;;17.20;99.90;;;;;;5012882;28;20109;-90
2023/05/08 11:30:43;;;;;;;64.65;36.67;;;17.30;99.90;;;;;;5005710;28;20101;-85
2023/05/08 11:33:08;;;;;;;52.15;34.20;;;17.20;99.90;;;;;;5010794;28;20355;-84
2023/05/08 11:36:23;;;;;;;66.07;36.85;;;17.30;99.90;;;;;;5011112;28;20223;-85
2023/05/08 11:39:16;;;;;;;56.92;35.08;;;17.30;99.90;;;;;;4997691;28;20065;-84
2023/05/08 11:41:42;;;;;;;52.80;33.55;;;17.20;99.90;;;;;;5008397;28;20081;-85
2023/05/08 11:44:19;;;;;;;51.85;32.63;;;17.30;99.90;;;;;;5011999;28;20084;-85
2023/05/08 11:46:54;;;;;;;51.10;32.10;;;17.20;99.90;;;;;;5012353;28;20030;-85
2023/05/08 11:49:25;;;;;;;51.10;33.67;;;17.30;99.90;;;;;;5012517;28;20029;-84
2023/05/08 11:51:56;;;;;;;52.70;34.70;;;17.30;99.90;;;;;;5011013;28;20018;-85
2023/05/08 11:54:23;;;;;;;54.53;34.20;;;17.30;99.90;;;;;;5011157;28;20401;-85
2023/05/08 11:56:50;;;;;;;51.38;35.25;;;17.30;99.90;;;;;;5009894;28;20484;-85
2023/05/08 11:59:16;;;;;;;50.75;34.67;;;17.30;99.90;;;;;;5010945;28;20037;-84
2023/05/08 12:01:42;;;;;;;47.65;33.33;;;17.40;99.90;;;;;;5010572;28;20505;-85
2023/05/08 12:04:10;;;;;;;54.13;33.55;;;17.30;99.90;;;;;;5010569;28;20022;-85
2023/05/08 12:06:37;;;;;;;47.40;33.60;;;17.40;99.90;;;;;;5010981;28;20030;-85
2023/05/08 12:09:19;;;;;;;51.95;32.90;;;17.30;99.90;;;;;;5012521;28;20377;-84
2023/05/08 12:11:44;;;;;;;53.67;35.10;;;17.40;99.90;;;;;;5011273;28;20447;-85
2023/05/08 12:14:16;;;;;;;54.83;35.30;;;17.40;99.90;;;;;;5012215;28;20056;-85
2023/05/08 12:16:42;;;;;;;55.30;33.97;;;17.50;99.90;;;;;;5011856;28;20052;-85
2023/05/08 12:19:12;;;;;;;53.25;34.05;;;17.60;99.90;;;;;;5011569;28;20030;-85
2023/05/08 12:21:44;;;;;;;48.63;31.55;;;17.50;99.90;;;;;;5011959;28;20084;-85
2023/05/08 12:24:10;;;;;;;47.50;32.33;;;17.70;99.90;;;;;;5012054;28;20033;-84
2023/05/08 12:26:36;;;;;;;44.83;31.33;;;17.50;99.90;;;;;;5011755;28;20037;-85
2023/05/08 12:29:06;;;;;;;47.03;33.92;;;17.50;99.90;;;;;;5012204;28;20030;-85
2023/05/08 12:31:33;;;;;;;49.97;31.63;;;17.60;99.90;;;;;;5011986;28;20026;-85
2023/05/08 12:33:59;;;;;;;50.33;31.60;;;17.90;99.90;;;;;;5011583;28;20037;-85